首页
METAR-TAF:

METAR-TAF

机场 :

雅富顿, 怀俄明州, 美国

纬度: 42-42-32N, 经度: 110-56-32W, 海拔: 1896米

当前天气观测

该预报发布于23分钟前的17:55 UTC
风速3节,风向南转西南
温度 12°C
湿度 71%
气压 1007 hPa
能見度: 16.1公里
天空无云

METAR: KAFO 061755Z AUTO 20003KT 10SM CLR 12/07 A2975 RMK AO2 LTG DSNT S

时间: 12:18 (18:18 UTC)


TAF: 丢失

超过4000个机场的气象观测和天气预报(METAR&TAF报告)。

可查询的气象台以黄色和红色小点在地图上表示。

将鼠标移到小点上方,可查看气象台名称。

然后点击查看天气观测和预报。

如需切换地图:点击带黑十字的绿色按钮放大地图;点击带横线的绿色按钮缩小地图;或者点击绿色箭头查看邻近地区的地图。


METAR-TAF: